sensor_id;sensor_type;location;lat;lon;timestamp;temperature;humidity
32095;DHT22;18608;53.688;10.748;2023-02-13T00:00:31;6.50;99.90
32095;DHT22;18608;53.688;10.748;2023-02-13T00:02:57;6.40;99.90
32095;DHT22;18608;53.688;10.748;2023-02-13T00:05:22;6.40;99.90
32095;DHT22;18608;53.688;10.748;2023-02-13T00:07:48;6.40;99.90
32095;DHT22;18608;53.688;10.748;2023-02-13T00:10:14;6.40;99.90
32095;DHT22;18608;53.688;10.748;2023-02-13T00:12:39;6.40;99.90
32095;DHT22;18608;53.688;10.748;2023-02-13T00:15:06;6.40;99.90
32095;DHT22;18608;53.688;10.748;2023-02-13T00:17:31;6.40;99.90
32095;DHT22;18608;53.688;10.748;2023-02-13T00:19:57;6.40;99.90
32095;DHT22;18608;53.688;10.748;2023-02-13T00:22:23;6.40;99.90
32095;DHT22;18608;53.688;10.748;2023-02-13T00:24:49;6.40;99.90
32095;DHT22;18608;53.688;10.748;2023-02-13T00:27:14;6.40;99.90
32095;DHT22;18608;53.688;10.748;2023-02-13T00:29:40;6.40;99.90
32095;DHT22;18608;53.688;10.748;2023-02-13T00:32:06;6.40;99.90
32095;DHT22;18608;53.688;10.748;2023-02-13T00:34:31;6.40;99.90
32095;DHT22;18608;53.688;10.748;2023-02-13T00:36:57;6.40;99.90
32095;DHT22;18608;53.688;10.748;2023-02-13T00:39:23;6.40;99.90
32095;DHT22;18608;53.688;10.748;2023-02-13T00:41:48;6.40;99.90
32095;DHT22;18608;53.688;10.748;2023-02-13T00:44:14;6.40;99.90
32095;DHT22;18608;53.688;10.748;2023-02-13T00:46:39;6.40;99.90
32095;DHT22;18608;53.688;10.748;2023-02-13T00:49:05;6.30;99.90
32095;DHT22;18608;53.688;10.748;2023-02-13T00:51:31;6.40;99.90
32095;DHT22;18608;53.688;10.748;2023-02-13T00:53:56;6.40;99.90
32095;DHT22;18608;53.688;10.748;2023-02-13T00:56:22;6.40;99.90
32095;DHT22;18608;53.688;10.748;2023-02-13T00:58:48;6.40;99.90
32095;DHT22;18608;53.688;10.748;2023-02-13T01:01:13;6.40;99.90
32095;DHT22;18608;53.688;10.748;2023-02-13T01:03:39;6.40;99.90
32095;DHT22;18608;53.688;10.748;2023-02-13T01:06:05;6.40;99.90
32095;DHT22;18608;53.688;10.748;2023-02-13T01:08:31;6.40;99.90
32095;DHT22;18608;53.688;10.748;2023-02-13T01:10:56;6.40;99.90
32095;DHT22;18608;53.688;10.748;2023-02-13T01:13:22;6.50;99.90
32095;DHT22;18608;53.688;10.748;2023-02-13T01:15:48;6.60;99.90
32095;DHT22;18608;53.688;10.748;2023-02-13T01:18:15;6.60;99.90
32095;DHT22;18608;53.688;10.748;2023-02-13T01:20:42;6.50;99.90
32095;DHT22;18608;53.688;10.748;2023-02-13T01:23:09;6.40;99.90
32095;DHT22;18608;53.688;10.748;2023-02-13T01:25:39;6.40;99.90
32095;DHT22;18608;53.688;10.748;2023-02-13T01:28:04;6.40;99.90
32095;DHT22;18608;53.688;10.748;2023-02-13T01:30:30;6.30;99.90
32095;DHT22;18608;53.688;10.748;2023-02-13T01:32:55;6.40;99.90
32095;DHT22;18608;53.688;10.748;2023-02-13T01:35:21;6.40;99.90
32095;DHT22;18608;53.688;10.748;2023-02-13T01:37:47;6.30;99.90
32095;DHT22;18608;53.688;10.748;2023-02-13T01:40:13;6.40;99.90
32095;DHT22;18608;53.688;10.748;2023-02-13T01:42:39;6.30;99.90
32095;DHT22;18608;53.688;10.748;2023-02-13T01:45:26;6.30;99.90
32095;DHT22;18608;53.688;10.748;2023-02-13T01:47:57;6.40;99.90
32095;DHT22;18608;53.688;10.748;2023-02-13T01:50:31;6.50;99.90
32095;DHT22;18608;53.688;10.748;2023-02-13T01:53:11;6.60;99.90
32095;DHT22;18608;53.688;10.748;2023-02-13T01:55:54;6.60;99.90
32095;DHT22;18608;53.688;10.748;2023-02-13T01:58:25;6.50;99.90
32095;DHT22;18608;53.688;10.748;2023-02-13T02:00:52;6.50;99.90
32095;DHT22;18608;53.688;10.748;2023-02-13T02:03:23;6.40;99.90
32095;DHT22;18608;53.688;10.748;2023-02-13T02:05:53;6.30;99.90
32095;DHT22;18608;53.688;10.748;2023-02-13T02:08:21;6.30;99.90
32095;DHT22;18608;53.688;10.748;2023-02-13T02:10:47;6.40;99.90
32095;DHT22;18608;53.688;10.748;2023-02-13T02:13:16;6.20;99.90
32095;DHT22;18608;53.688;10.748;2023-02-13T02:15:43;6.20;99.90
32095;DHT22;18608;53.688;10.748;2023-02-13T02:18:21;6.20;99.90
32095;DHT22;18608;53.688;10.748;2023-02-13T02:42:28;6.40;99.90
32095;DHT22;18608;53.688;10.748;2023-02-13T02:45:09;6.30;99.90
32095;DHT22;18608;53.688;10.748;2023-02-13T02:48:04;6.30;99.90
32095;DHT22;18608;53.688;10.748;2023-02-13T02:51:42;6.30;99.90
32095;DHT22;18608;53.688;10.748;2023-02-13T02:56:40;6.20;99.90
32095;DHT22;18608;53.688;10.748;2023-02-13T02:59:10;6.10;99.90
32095;DHT22;18608;53.688;10.748;2023-02-13T03:01:55;6.20;99.90
32095;DHT22;18608;53.688;10.748;2023-02-13T03:04:50;6.20;99.90
32095;DHT22;18608;53.688;10.748;2023-02-13T03:07:39;6.20;99.90
32095;DHT22;18608;53.688;10.748;2023-02-13T03:10:24;6.20;99.90
32095;DHT22;18608;53.688;10.748;2023-02-13T03:13:41;6.20;99.90
32095;DHT22;18608;53.688;10.748;2023-02-13T03:16:16;6.10;99.90
32095;DHT22;18608;53.688;10.748;2023-02-13T03:19:02;6.20;99.90
32095;DHT22;18608;53.688;10.748;2023-02-13T03:24:49;6.30;99.90
32095;DHT22;18608;53.688;10.748;2023-02-13T03:34:09;6.10;99.90
32095;DHT22;18608;53.688;10.748;2023-02-13T03:36:49;6.00;99.90
32095;DHT22;18608;53.688;10.748;2023-02-13T03:42:26;6.00;99.90
32095;DHT22;18608;53.688;10.748;2023-02-13T03:44:59;6.00;99.90
32095;DHT22;18608;53.688;10.748;2023-02-13T03:47:46;6.00;99.90
32095;DHT22;18608;53.688;10.748;2023-02-13T03:50:14;6.10;99.90
32095;DHT22;18608;53.688;10.748;2023-02-13T03:52:52;6.00;99.90
32095;DHT22;18608;53.688;10.748;2023-02-13T03:55:23;6.00;99.90
32095;DHT22;18608;53.688;10.748;2023-02-13T03:58:13;6.00;99.90
32095;DHT22;18608;53.688;10.748;2023-02-13T04:01:00;6.00;99.90
32095;DHT22;18608;53.688;10.748;2023-02-13T04:06:21;6.10;99.90
32095;DHT22;18608;53.688;10.748;2023-02-13T04:08:50;6.00;99.90
32095;DHT22;18608;53.688;10.748;2023-02-13T04:11:32;6.00;99.90
32095;DHT22;18608;53.688;10.748;2023-02-13T04:14:04;6.00;99.90
32095;DHT22;18608;53.688;10.748;2023-02-13T04:16:54;6.00;99.90
32095;DHT22;18608;53.688;10.748;2023-02-13T04:19:23;6.00;99.90
32095;DHT22;18608;53.688;10.748;2023-02-13T04:21:56;6.00;99.90
32095;DHT22;18608;53.688;10.748;2023-02-13T04:24:22;6.00;99.90
32095;DHT22;18608;53.688;10.748;2023-02-13T04:26:48;5.80;99.90
32095;DHT22;18608;53.688;10.748;2023-02-13T04:29:13;5.90;99.90
32095;DHT22;18608;53.688;10.748;2023-02-13T04:31:39;5.90;99.90
32095;DHT22;18608;53.688;10.748;2023-02-13T04:34:05;5.90;99.90
32095;DHT22;18608;53.688;10.748;2023-02-13T04:36:30;5.90;99.90
32095;DHT22;18608;53.688;10.748;2023-02-13T04:38:56;5.90;99.90
32095;DHT22;18608;53.688;10.748;2023-02-13T04:41:22;5.90;99.90
32095;DHT22;18608;53.688;10.748;2023-02-13T04:43:47;5.80;99.90
32095;DHT22;18608;53.688;10.748;2023-02-13T04:46:13;5.90;99.90
32095;DHT22;18608;53.688;10.748;2023-02-13T04:48:39;5.90;99.90
32095;DHT22;18608;53.688;10.748;2023-02-13T04:51:05;5.90;99.90
32095;DHT22;18608;53.688;10.748;2023-02-13T04:53:30;5.90;99.90
32095;DHT22;18608;53.688;10.748;2023-02-13T04:55:56;5.90;99.90
32095;DHT22;18608;53.688;10.748;2023-02-13T04:58:21;5.60;99.90
32095;DHT22;18608;53.688;10.748;2023-02-13T05:00:47;5.80;99.90
32095;DHT22;18608;53.688;10.748;2023-02-13T05:03:13;5.90;99.90
32095;DHT22;18608;53.688;10.748;2023-02-13T05:05:39;5.80;99.90
32095;DHT22;18608;53.688;10.748;2023-02-13T05:08:05;5.90;99.90
32095;DHT22;18608;53.688;10.748;2023-02-13T05:10:32;5.90;99.90
32095;DHT22;18608;53.688;10.748;2023-02-13T05:12:58;5.80;99.90
32095;DHT22;18608;53.688;10.748;2023-02-13T05:15:23;5.80;99.90
32095;DHT22;18608;53.688;10.748;2023-02-13T05:17:50;5.80;99.90
32095;DHT22;18608;53.688;10.748;2023-02-13T05:20:16;5.90;99.90
32095;DHT22;18608;53.688;10.748;2023-02-13T05:22:50;5.80;99.90
32095;DHT22;18608;53.688;10.748;2023-02-13T05:25:37;5.80;99.90
32095;DHT22;18608;53.688;10.748;2023-02-13T05:28:03;5.80;99.90
32095;DHT22;18608;53.688;10.748;2023-02-13T05:30:29;5.70;99.90
32095;DHT22;18608;53.688;10.748;2023-02-13T05:32:54;5.80;99.90
32095;DHT22;18608;53.688;10.748;2023-02-13T05:35:21;5.80;99.90
32095;DHT22;18608;53.688;10.748;2023-02-13T05:37:47;5.80;99.90
32095;DHT22;18608;53.688;10.748;2023-02-13T05:40:13;5.80;99.90
32095;DHT22;18608;53.688;10.748;2023-02-13T05:42:42;5.80;99.90
32095;DHT22;18608;53.688;10.748;2023-02-13T05:45:08;5.80;99.90
32095;DHT22;18608;53.688;10.748;2023-02-13T05:47:35;5.80;99.90
32095;DHT22;18608;53.688;10.748;2023-02-13T05:50:00;5.80;99.90
32095;DHT22;18608;53.688;10.748;2023-02-13T05:52:26;5.90;99.90
32095;DHT22;18608;53.688;10.748;2023-02-13T05:54:51;5.90;99.90
32095;DHT22;18608;53.688;10.748;2023-02-13T05:57:17;5.90;99.90
32095;DHT22;18608;53.688;10.748;2023-02-13T05:59:43;5.90;99.90
32095;DHT22;18608;53.688;10.748;2023-02-13T06:02:09;5.90;99.90
32095;DHT22;18608;53.688;10.748;2023-02-13T06:04:35;5.90;99.90
32095;DHT22;18608;53.688;10.748;2023-02-13T06:07:01;5.90;99.90
32095;DHT22;18608;53.688;10.748;2023-02-13T06:09:27;5.90;99.90
32095;DHT22;18608;53.688;10.748;2023-02-13T06:11:52;5.90;99.90
32095;DHT22;18608;53.688;10.748;2023-02-13T06:14:18;5.90;99.90
32095;DHT22;18608;53.688;10.748;2023-02-13T06:16:44;5.90;99.90
32095;DHT22;18608;53.688;10.748;2023-02-13T06:19:09;5.90;99.90
32095;DHT22;18608;53.688;10.748;2023-02-13T06:21:35;5.90;99.90
32095;DHT22;18608;53.688;10.748;2023-02-13T06:24:06;5.90;99.90
32095;DHT22;18608;53.688;10.748;2023-02-13T06:26:33;5.90;99.90
32095;DHT22;18608;53.688;10.748;2023-02-13T06:28:58;5.90;99.90
32095;DHT22;18608;53.688;10.748;2023-02-13T06:31:24;5.90;99.90
32095;DHT22;18608;53.688;10.748;2023-02-13T06:33:50;5.80;99.90
32095;DHT22;18608;53.688;10.748;2023-02-13T06:36:15;5.80;99.90
32095;DHT22;18608;53.688;10.748;2023-02-13T06:38:41;5.80;99.90
32095;DHT22;18608;53.688;10.748;2023-02-13T06:41:08;5.80;99.90
32095;DHT22;18608;53.688;10.748;2023-02-13T06:43:34;5.80;99.90
32095;DHT22;18608;53.688;10.748;2023-02-13T06:46:04;5.80;99.90
32095;DHT22;18608;53.688;10.748;2023-02-13T06:48:30;5.80;99.90
32095;DHT22;18608;53.688;10.748;2023-02-13T06:50:55;5.80;99.90
32095;DHT22;18608;53.688;10.748;2023-02-13T06:53:21;5.90;99.90
32095;DHT22;18608;53.688;10.748;2023-02-13T06:55:53;5.80;99.90
32095;DHT22;18608;53.688;10.748;2023-02-13T06:58:20;5.80;99.90
32095;DHT22;18608;53.688;10.748;2023-02-13T07:00:45;5.80;99.90
32095;DHT22;18608;53.688;10.748;2023-02-13T07:03:11;5.80;99.90
32095;DHT22;18608;53.688;10.748;2023-02-13T07:05:41;5.80;99.90
32095;DHT22;18608;53.688;10.748;2023-02-13T07:08:08;5.80;99.90
32095;DHT22;18608;53.688;10.748;2023-02-13T07:10:39;5.80;99.90
32095;DHT22;18608;53.688;10.748;2023-02-13T07:13:06;5.80;99.90
32095;DHT22;18608;53.688;10.748;2023-02-13T07:15:33;5.80;99.90
32095;DHT22;18608;53.688;10.748;2023-02-13T07:17:59;5.80;99.90
32095;DHT22;18608;53.688;10.748;2023-02-13T07:20:26;5.90;99.90
32095;DHT22;18608;53.688;10.748;2023-02-13T07:22:52;5.90;99.90
32095;DHT22;18608;53.688;10.748;2023-02-13T07:25:18;5.90;99.90
32095;DHT22;18608;53.688;10.748;2023-02-13T07:27:44;6.00;99.90
32095;DHT22;18608;53.688;10.748;2023-02-13T07:30:10;6.00;99.90
32095;DHT22;18608;53.688;10.748;2023-02-13T07:32:35;6.00;99.90
32095;DHT22;18608;53.688;10.748;2023-02-13T07:35:01;6.10;99.90
32095;DHT22;18608;53.688;10.748;2023-02-13T07:37:28;6.10;99.90
32095;DHT22;18608;53.688;10.748;2023-02-13T07:39:53;6.20;99.90
32095;DHT22;18608;53.688;10.748;2023-02-13T07:42:19;6.10;99.90
32095;DHT22;18608;53.688;10.748;2023-02-13T07:44:45;6.20;99.90
32095;DHT22;18608;53.688;10.748;2023-02-13T07:47:10;6.10;99.90
32095;DHT22;18608;53.688;10.748;2023-02-13T07:49:36;6.10;99.90
32095;DHT22;18608;53.688;10.748;2023-02-13T07:52:03;6.00;99.90
32095;DHT22;18608;53.688;10.748;2023-02-13T07:54:29;6.10;99.90
32095;DHT22;18608;53.688;10.748;2023-02-13T07:56:54;6.20;99.90
32095;DHT22;18608;53.688;10.748;2023-02-13T07:59:20;6.20;99.90
32095;DHT22;18608;53.688;10.748;2023-02-13T08:01:46;6.20;99.90
32095;DHT22;18608;53.688;10.748;2023-02-13T08:04:11;6.10;99.90
32095;DHT22;18608;53.688;10.748;2023-02-13T08:06:40;6.20;99.90
32095;DHT22;18608;53.688;10.748;2023-02-13T08:09:06;6.20;99.90
32095;DHT22;18608;53.688;10.748;2023-02-13T08:11:52;6.20;99.90
32095;DHT22;18608;53.688;10.748;2023-02-13T08:14:22;6.20;99.90
32095;DHT22;18608;53.688;10.748;2023-02-13T08:16:49;6.10;99.90
32095;DHT22;18608;53.688;10.748;2023-02-13T08:19:14;6.20;99.90
32095;DHT22;18608;53.688;10.748;2023-02-13T08:21:40;6.20;99.90
32095;DHT22;18608;53.688;10.748;2023-02-13T08:24:06;6.20;99.90
32095;DHT22;18608;53.688;10.748;2023-02-13T08:26:32;6.20;99.90
32095;DHT22;18608;53.688;10.748;2023-02-13T08:28:58;6.20;99.90
32095;DHT22;18608;53.688;10.748;2023-02-13T08:31:24;6.10;99.90
32095;DHT22;18608;53.688;10.748;2023-02-13T08:33:50;6.10;99.90
32095;DHT22;18608;53.688;10.748;2023-02-13T08:36:15;6.10;99.90
32095;DHT22;18608;53.688;10.748;2023-02-13T08:38:41;6.10;99.90
32095;DHT22;18608;53.688;10.748;2023-02-13T08:41:06;6.10;99.90
32095;DHT22;18608;53.688;10.748;2023-02-13T08:43:32;6.20;99.90
32095;DHT22;18608;53.688;10.748;2023-02-13T08:45:59;6.20;99.90
32095;DHT22;18608;53.688;10.748;2023-02-13T08:48:25;6.30;99.90
32095;DHT22;18608;53.688;10.748;2023-02-13T08:50:51;6.20;99.90
32095;DHT22;18608;53.688;10.748;2023-02-13T08:53:17;6.20;99.90
32095;DHT22;18608;53.688;10.748;2023-02-13T08:55:42;6.30;99.90
32095;DHT22;18608;53.688;10.748;2023-02-13T08:58:15;6.30;99.90
32095;DHT22;18608;53.688;10.748;2023-02-13T09:00:41;6.30;99.90
32095;DHT22;18608;53.688;10.748;2023-02-13T09:03:06;6.40;99.90
32095;DHT22;18608;53.688;10.748;2023-02-13T09:05:32;6.50;99.90
32095;DHT22;18608;53.688;10.748;2023-02-13T09:08:01;6.40;99.90
32095;DHT22;18608;53.688;10.748;2023-02-13T09:10:28;6.30;99.90
32095;DHT22;18608;53.688;10.748;2023-02-13T09:12:54;6.20;99.90
32095;DHT22;18608;53.688;10.748;2023-02-13T09:15:19;6.20;99.90
32095;DHT22;18608;53.688;10.748;2023-02-13T09:17:45;6.20;99.90
32095;DHT22;18608;53.688;10.748;2023-02-13T09:20:11;6.20;99.90
32095;DHT22;18608;53.688;10.748;2023-02-13T09:22:39;6.20;99.90
32095;DHT22;18608;53.688;10.748;2023-02-13T09:25:05;6.20;99.90
32095;DHT22;18608;53.688;10.748;2023-02-13T09:27:31;6.30;99.90
32095;DHT22;18608;53.688;10.748;2023-02-13T09:29:58;6.40;99.90
32095;DHT22;18608;53.688;10.748;2023-02-13T09:32:24;6.40;99.90
32095;DHT22;18608;53.688;10.748;2023-02-13T09:34:50;6.40;99.90
32095;DHT22;18608;53.688;10.748;2023-02-13T09:37:15;6.30;99.90
32095;DHT22;18608;53.688;10.748;2023-02-13T09:39:41;6.30;99.90
32095;DHT22;18608;53.688;10.748;2023-02-13T09:44:44;6.30;99.90
32095;DHT22;18608;53.688;10.748;2023-02-13T09:49:49;6.30;99.90
32095;DHT22;18608;53.688;10.748;2023-02-13T09:52:17;6.30;99.90
32095;DHT22;18608;53.688;10.748;2023-02-13T09:54:43;6.30;99.90
32095;DHT22;18608;53.688;10.748;2023-02-13T09:57:34;6.30;99.90
32095;DHT22;18608;53.688;10.748;2023-02-13T10:02:52;6.40;99.90
32095;DHT22;18608;53.688;10.748;2023-02-13T10:11:11;6.40;99.90
32095;DHT22;18608;53.688;10.748;2023-02-13T10:16:24;6.40;99.90
32095;DHT22;18608;53.688;10.748;2023-02-13T10:19:00;6.40;99.90
32095;DHT22;18608;53.688;10.748;2023-02-13T10:21:32;6.50;99.90
32095;DHT22;18608;53.688;10.748;2023-02-13T10:24:11;6.50;99.90
32095;DHT22;18608;53.688;10.748;2023-02-13T10:26:40;6.60;99.90
32095;DHT22;18608;53.688;10.748;2023-02-13T10:29:36;6.60;99.90
32095;DHT22;18608;53.688;10.748;2023-02-13T10:32:27;6.60;99.90
32095;DHT22;18608;53.688;10.748;2023-02-13T10:34:54;6.50;99.90
32095;DHT22;18608;53.688;10.748;2023-02-13T10:37:22;6.30;99.90
32095;DHT22;18608;53.688;10.748;2023-02-13T10:39:49;6.50;99.90
32095;DHT22;18608;53.688;10.748;2023-02-13T10:51:07;6.50;99.90
32095;DHT22;18608;53.688;10.748;2023-02-13T11:04:36;6.60;99.90
32095;DHT22;18608;53.688;10.748;2023-02-13T11:07:03;6.60;99.90
32095;DHT22;18608;53.688;10.748;2023-02-13T11:09:35;6.70;99.90
32095;DHT22;18608;53.688;10.748;2023-02-13T11:17:54;6.80;99.90
32095;DHT22;18608;53.688;10.748;2023-02-13T11:20:38;6.80;99.90
32095;DHT22;18608;53.688;10.748;2023-02-13T11:25:59;6.80;99.90
32095;DHT22;18608;53.688;10.748;2023-02-13T11:28:27;6.80;99.90
32095;DHT22;18608;53.688;10.748;2023-02-13T11:31:12;6.70;99.90
32095;DHT22;18608;53.688;10.748;2023-02-13T11:33:38;6.80;99.90
32095;DHT22;18608;53.688;10.748;2023-02-13T11:36:14;6.80;99.90
32095;DHT22;18608;53.688;10.748;2023-02-13T11:38:41;6.80;99.90
32095;DHT22;18608;53.688;10.748;2023-02-13T11:41:12;6.80;99.90
32095;DHT22;18608;53.688;10.748;2023-02-13T11:48:59;6.90;99.90
32095;DHT22;18608;53.688;10.748;2023-02-13T11:51:46;6.80;99.90
32095;DHT22;18608;53.688;10.748;2023-02-13T11:54:37;6.90;99.90
32095;DHT22;18608;53.688;10.748;2023-02-13T11:57:21;6.90;99.90
32095;DHT22;18608;53.688;10.748;2023-02-13T11:59:48;6.80;99.90
32095;DHT22;18608;53.688;10.748;2023-02-13T12:04:51;6.80;99.90
32095;DHT22;18608;53.688;10.748;2023-02-13T12:07:28;6.80;99.90
32095;DHT22;18608;53.688;10.748;2023-02-13T12:10:22;6.80;99.90
32095;DHT22;18608;53.688;10.748;2023-02-13T12:15:31;7.00;99.90
32095;DHT22;18608;53.688;10.748;2023-02-13T12:18:25;6.90;99.90
32095;DHT22;18608;53.688;10.748;2023-02-13T12:28:50;7.00;99.90
32095;DHT22;18608;53.688;10.748;2023-02-13T12:39:32;7.00;99.90
32095;DHT22;18608;53.688;10.748;2023-02-13T12:47:34;6.90;99.90
32095;DHT22;18608;53.688;10.748;2023-02-13T12:50:24;6.90;99.90
32095;DHT22;18608;53.688;10.748;2023-02-13T12:56:11;7.00;99.90
32095;DHT22;18608;53.688;10.748;2023-02-13T13:04:36;7.00;99.90
32095;DHT22;18608;53.688;10.748;2023-02-13T13:09:52;6.90;99.90
32095;DHT22;18608;53.688;10.748;2023-02-13T13:15:01;6.90;99.90
32095;DHT22;18608;53.688;10.748;2023-02-13T13:23:14;7.00;99.90
32095;DHT22;18608;53.688;10.748;2023-02-13T13:25:44;6.90;99.90
32095;DHT22;18608;53.688;10.748;2023-02-13T13:28:21;6.90;99.90
32095;DHT22;18608;53.688;10.748;2023-02-13T13:30:48;6.90;99.90
32095;DHT22;18608;53.688;10.748;2023-02-13T13:33:18;6.90;99.90
32095;DHT22;18608;53.688;10.748;2023-02-13T13:36:10;7.00;99.90
32095;DHT22;18608;53.688;10.748;2023-02-13T13:48:17;7.00;99.90
32095;DHT22;18608;53.688;10.748;2023-02-13T13:53:05;7.00;99.90
32095;DHT22;18608;53.688;10.748;2023-02-13T13:58:45;7.00;99.90
32095;DHT22;18608;53.688;10.748;2023-02-13T14:03:53;7.00;99.90
32095;DHT22;18608;53.688;10.748;2023-02-13T14:06:25;7.20;99.90
32095;DHT22;18608;53.688;10.748;2023-02-13T14:09:02;7.40;99.90
32095;DHT22;18608;53.688;10.748;2023-02-13T14:13:57;7.40;99.90
32095;DHT22;18608;53.688;10.748;2023-02-13T14:16:43;7.40;99.90
32095;DHT22;18608;53.688;10.748;2023-02-13T14:19:49;7.30;99.90
32095;DHT22;18608;53.688;10.748;2023-02-13T14:24:58;7.00;99.90
32095;DHT22;18608;53.688;10.748;2023-02-13T14:27:36;7.00;99.90
32095;DHT22;18608;53.688;10.748;2023-02-13T14:30:04;7.00;99.90
32095;DHT22;18608;53.688;10.748;2023-02-13T14:32:43;6.80;99.90
32095;DHT22;18608;53.688;10.748;2023-02-13T14:37:50;6.80;99.90
32095;DHT22;18608;53.688;10.748;2023-02-13T14:42:52;6.80;99.90
32095;DHT22;18608;53.688;10.748;2023-02-13T14:45:29;6.80;99.90
32095;DHT22;18608;53.688;10.748;2023-02-13T14:48:01;6.80;99.90
32095;DHT22;18608;53.688;10.748;2023-02-13T14:50:42;6.70;99.90
32095;DHT22;18608;53.688;10.748;2023-02-13T14:53:17;6.70;99.90
32095;DHT22;18608;53.688;10.748;2023-02-13T14:55:48;6.70;99.90
32095;DHT22;18608;53.688;10.748;2023-02-13T14:58:30;6.70;99.90
32095;DHT22;18608;53.688;10.748;2023-02-13T15:01:17;6.80;99.90
32095;DHT22;18608;53.688;10.748;2023-02-13T15:03:53;7.90;99.90
32095;DHT22;18608;53.688;10.748;2023-02-13T15:06:30;6.80;99.90
32095;DHT22;18608;53.688;10.748;2023-02-13T15:09:00;6.80;99.90
32095;DHT22;18608;53.688;10.748;2023-02-13T15:11:40;6.90;99.90
32095;DHT22;18608;53.688;10.748;2023-02-13T15:16:50;6.70;99.90
32095;DHT22;18608;53.688;10.748;2023-02-13T15:19:19;6.70;99.90
32095;DHT22;18608;53.688;10.748;2023-02-13T15:21:49;6.60;99.90
32095;DHT22;18608;53.688;10.748;2023-02-13T15:24:15;6.60;99.90
32095;DHT22;18608;53.688;10.748;2023-02-13T15:26:42;6.60;99.90
32095;DHT22;18608;53.688;10.748;2023-02-13T15:29:17;6.60;99.90
32095;DHT22;18608;53.688;10.748;2023-02-13T15:31:43;6.60;99.90
32095;DHT22;18608;53.688;10.748;2023-02-13T15:34:28;6.50;99.90
32095;DHT22;18608;53.688;10.748;2023-02-13T15:36:54;6.50;99.90
32095;DHT22;18608;53.688;10.748;2023-02-13T15:39:29;6.50;99.90
32095;DHT22;18608;53.688;10.748;2023-02-13T15:41:57;6.50;99.90
32095;DHT22;18608;53.688;10.748;2023-02-13T15:44:35;6.50;99.90
32095;DHT22;18608;53.688;10.748;2023-02-13T15:47:21;6.40;99.90
32095;DHT22;18608;53.688;10.748;2023-02-13T15:49:47;6.40;99.90
32095;DHT22;18608;53.688;10.748;2023-02-13T15:54:54;6.40;99.90
32095;DHT22;18608;53.688;10.748;2023-02-13T15:57:20;6.40;99.90
32095;DHT22;18608;53.688;10.748;2023-02-13T15:59:48;6.40;99.90
32095;DHT22;18608;53.688;10.748;2023-02-13T16:02:23;6.40;99.90
32095;DHT22;18608;53.688;10.748;2023-02-13T16:04:52;6.40;99.90
32095;DHT22;18608;53.688;10.748;2023-02-13T16:07:18;6.20;99.90
32095;DHT22;18608;53.688;10.748;2023-02-13T16:09:44;6.30;99.90
32095;DHT22;18608;53.688;10.748;2023-02-13T16:12:23;6.30;99.90
32095;DHT22;18608;53.688;10.748;2023-02-13T16:14:59;6.30;99.90
32095;DHT22;18608;53.688;10.748;2023-02-13T16:17:34;6.30;99.90
32095;DHT22;18608;53.688;10.748;2023-02-13T16:20:02;6.20;99.90
32095;DHT22;18608;53.688;10.748;2023-02-13T16:25:11;6.20;99.90
32095;DHT22;18608;53.688;10.748;2023-02-13T16:30:21;6.20;99.90
32095;DHT22;18608;53.688;10.748;2023-02-13T16:32:47;6.20;99.90
32095;DHT22;18608;53.688;10.748;2023-02-13T16:37:53;6.10;99.90
32095;DHT22;18608;53.688;10.748;2023-02-13T16:40:41;6.00;99.90
32095;DHT22;18608;53.688;10.748;2023-02-13T16:43:36;6.00;99.90
32095;DHT22;18608;53.688;10.748;2023-02-13T16:46:35;6.00;99.90
32095;DHT22;18608;53.688;10.748;2023-02-13T16:51:59;6.00;99.90
32095;DHT22;18608;53.688;10.748;2023-02-13T16:57:29;6.00;99.90
32095;DHT22;18608;53.688;10.748;2023-02-13T17:02:27;5.90;99.90
32095;DHT22;18608;53.688;10.748;2023-02-13T17:07:25;5.90;99.90
32095;DHT22;18608;53.688;10.748;2023-02-13T17:09:53;5.90;99.90
32095;DHT22;18608;53.688;10.748;2023-02-13T17:12:19;5.90;99.90
32095;DHT22;18608;53.688;10.748;2023-02-13T17:14:45;5.90;99.90
32095;DHT22;18608;53.688;10.748;2023-02-13T17:17:16;5.90;99.90
32095;DHT22;18608;53.688;10.748;2023-02-13T17:19:43;5.80;99.90
32095;DHT22;18608;53.688;10.748;2023-02-13T17:22:20;5.80;99.90
32095;DHT22;18608;53.688;10.748;2023-02-13T17:24:46;5.80;99.90
32095;DHT22;18608;53.688;10.748;2023-02-13T17:27:12;5.80;99.90
32095;DHT22;18608;53.688;10.748;2023-02-13T17:29:38;5.80;99.90
32095;DHT22;18608;53.688;10.748;2023-02-13T17:32:04;5.80;99.90
32095;DHT22;18608;53.688;10.748;2023-02-13T17:34:30;5.80;99.90
32095;DHT22;18608;53.688;10.748;2023-02-13T17:36:55;5.80;99.90
32095;DHT22;18608;53.688;10.748;2023-02-13T17:39:21;5.70;99.90
32095;DHT22;18608;53.688;10.748;2023-02-13T17:41:47;5.70;99.90
32095;DHT22;18608;53.688;10.748;2023-02-13T17:44:12;5.80;99.90
32095;DHT22;18608;53.688;10.748;2023-02-13T17:46:39;5.70;99.90
32095;DHT22;18608;53.688;10.748;2023-02-13T17:49:04;5.70;99.90
32095;DHT22;18608;53.688;10.748;2023-02-13T17:51:31;5.60;99.90
32095;DHT22;18608;53.688;10.748;2023-02-13T17:53:56;5.50;99.90
32095;DHT22;18608;53.688;10.748;2023-02-13T17:56:22;5.60;99.90
32095;DHT22;18608;53.688;10.748;2023-02-13T17:58:48;5.60;99.90
32095;DHT22;18608;53.688;10.748;2023-02-13T18:01:13;5.60;99.90
32095;DHT22;18608;53.688;10.748;2023-02-13T18:03:39;5.60;99.90
32095;DHT22;18608;53.688;10.748;2023-02-13T18:06:08;5.60;99.90
32095;DHT22;18608;53.688;10.748;2023-02-13T18:08:35;5.60;99.90
32095;DHT22;18608;53.688;10.748;2023-02-13T18:11:00;5.50;99.90
32095;DHT22;18608;53.688;10.748;2023-02-13T18:13:26;5.50;99.90
32095;DHT22;18608;53.688;10.748;2023-02-13T18:15:51;5.50;99.90
32095;DHT22;18608;53.688;10.748;2023-02-13T18:18:17;5.50;99.90
32095;DHT22;18608;53.688;10.748;2023-02-13T18:20:43;5.50;99.90
32095;DHT22;18608;53.688;10.748;2023-02-13T18:23:09;5.50;99.90
32095;DHT22;18608;53.688;10.748;2023-02-13T18:25:35;5.50;99.90
32095;DHT22;18608;53.688;10.748;2023-02-13T18:28:01;5.40;99.90
32095;DHT22;18608;53.688;10.748;2023-02-13T18:30:27;5.40;99.90
32095;DHT22;18608;53.688;10.748;2023-02-13T18:32:54;5.40;99.90
32095;DHT22;18608;53.688;10.748;2023-02-13T18:35:22;5.40;99.90
32095;DHT22;18608;53.688;10.748;2023-02-13T18:37:47;5.40;99.90
32095;DHT22;18608;53.688;10.748;2023-02-13T18:40:13;6.00;99.90
32095;DHT22;18608;53.688;10.748;2023-02-13T18:42:42;5.30;99.90
32095;DHT22;18608;53.688;10.748;2023-02-13T18:45:09;5.30;99.90
32095;DHT22;18608;53.688;10.748;2023-02-13T18:47:36;5.30;99.90
32095;DHT22;18608;53.688;10.748;2023-02-13T18:50:02;5.40;99.90
32095;DHT22;18608;53.688;10.748;2023-02-13T18:52:28;5.30;99.90
32095;DHT22;18608;53.688;10.748;2023-02-13T18:54:53;5.30;99.90
32095;DHT22;18608;53.688;10.748;2023-02-13T18:57:19;5.40;99.90